sensor_id;sensor_type;location;lat;lon;timestamp;temperature;humidity
698;DHT22;331;48.414;9.938;2023-03-05T00:01:03;2.30;99.90
698;DHT22;331;48.414;9.938;2023-03-05T00:03:29;2.30;99.90
698;DHT22;331;48.414;9.938;2023-03-05T00:05:56;2.30;99.90
698;DHT22;331;48.414;9.938;2023-03-05T00:08:24;2.30;99.90
698;DHT22;331;48.414;9.938;2023-03-05T00:10:55;2.30;99.90
698;DHT22;331;48.414;9.938;2023-03-05T00:13:21;2.30;99.90
698;DHT22;331;48.414;9.938;2023-03-05T00:15:48;2.30;99.90
698;DHT22;331;48.414;9.938;2023-03-05T00:18:15;2.30;99.90
698;DHT22;331;48.414;9.938;2023-03-05T00:20:42;2.30;99.90
698;DHT22;331;48.414;9.938;2023-03-05T00:23:09;2.30;99.90
698;DHT22;331;48.414;9.938;2023-03-05T00:25:37;2.30;99.90
698;DHT22;331;48.414;9.938;2023-03-05T00:28:04;2.30;99.90
698;DHT22;331;48.414;9.938;2023-03-05T00:30:31;2.30;99.90
698;DHT22;331;48.414;9.938;2023-03-05T00:32:58;2.30;99.90
698;DHT22;331;48.414;9.938;2023-03-05T00:35:24;2.30;99.90
698;DHT22;331;48.414;9.938;2023-03-05T00:37:51;2.30;99.90
698;DHT22;331;48.414;9.938;2023-03-05T00:40:18;2.30;99.90
698;DHT22;331;48.414;9.938;2023-03-05T00:42:47;2.30;99.90
698;DHT22;331;48.414;9.938;2023-03-05T00:45:13;2.30;99.90
698;DHT22;331;48.414;9.938;2023-03-05T00:47:40;2.30;99.90
698;DHT22;331;48.414;9.938;2023-03-05T00:50:08;2.30;99.90
698;DHT22;331;48.414;9.938;2023-03-05T00:52:35;2.30;99.90
698;DHT22;331;48.414;9.938;2023-03-05T00:55:01;2.30;99.90
698;DHT22;331;48.414;9.938;2023-03-05T00:57:28;2.30;99.90
698;DHT22;331;48.414;9.938;2023-03-05T00:59:56;2.30;99.90
698;DHT22;331;48.414;9.938;2023-03-05T01:02:23;2.30;99.90
698;DHT22;331;48.414;9.938;2023-03-05T01:04:50;2.30;99.90
698;DHT22;331;48.414;9.938;2023-03-05T01:07:17;2.30;99.90
698;DHT22;331;48.414;9.938;2023-03-05T01:09:44;2.30;99.90
698;DHT22;331;48.414;9.938;2023-03-05T01:12:11;2.30;99.90
698;DHT22;331;48.414;9.938;2023-03-05T01:14:37;2.30;99.90
698;DHT22;331;48.414;9.938;2023-03-05T01:17:06;2.30;99.90
698;DHT22;331;48.414;9.938;2023-03-05T01:19:33;2.30;99.90
698;DHT22;331;48.414;9.938;2023-03-05T01:21:59;2.30;99.90
698;DHT22;331;48.414;9.938;2023-03-05T01:24:26;2.30;99.90
698;DHT22;331;48.414;9.938;2023-03-05T01:26:53;2.30;99.90
698;DHT22;331;48.414;9.938;2023-03-05T01:29:22;2.30;99.90
698;DHT22;331;48.414;9.938;2023-03-05T01:31:50;2.30;99.90
698;DHT22;331;48.414;9.938;2023-03-05T01:34:18;2.30;99.90
698;DHT22;331;48.414;9.938;2023-03-05T01:36:45;2.30;99.90
698;DHT22;331;48.414;9.938;2023-03-05T01:39:14;2.30;99.90
698;DHT22;331;48.414;9.938;2023-03-05T01:41:41;2.30;99.90
698;DHT22;331;48.414;9.938;2023-03-05T01:44:14;2.30;99.90
698;DHT22;331;48.414;9.938;2023-03-05T01:46:43;2.30;99.90
698;DHT22;331;48.414;9.938;2023-03-05T01:49:12;2.30;99.90
698;DHT22;331;48.414;9.938;2023-03-05T01:51:43;2.30;99.90
698;DHT22;331;48.414;9.938;2023-03-05T01:54:12;2.30;99.90
698;DHT22;331;48.414;9.938;2023-03-05T01:56:41;2.30;99.90
698;DHT22;331;48.414;9.938;2023-03-05T01:59:09;2.30;99.90
698;DHT22;331;48.414;9.938;2023-03-05T02:01:37;2.30;99.90
698;DHT22;331;48.414;9.938;2023-03-05T02:04:06;2.30;99.90
698;DHT22;331;48.414;9.938;2023-03-05T02:06:34;2.30;99.90
698;DHT22;331;48.414;9.938;2023-03-05T02:09:02;2.30;99.90
698;DHT22;331;48.414;9.938;2023-03-05T02:11:29;2.30;99.90
698;DHT22;331;48.414;9.938;2023-03-05T02:13:56;2.30;99.90
698;DHT22;331;48.414;9.938;2023-03-05T02:16:23;2.20;99.90
698;DHT22;331;48.414;9.938;2023-03-05T02:18:50;2.20;99.90
698;DHT22;331;48.414;9.938;2023-03-05T02:21:27;2.20;99.90
698;DHT22;331;48.414;9.938;2023-03-05T02:23:56;2.30;99.90
698;DHT22;331;48.414;9.938;2023-03-05T02:26:23;2.20;99.90
698;DHT22;331;48.414;9.938;2023-03-05T02:28:51;2.30;99.90
698;DHT22;331;48.414;9.938;2023-03-05T02:31:20;2.20;99.90
698;DHT22;331;48.414;9.938;2023-03-05T02:33:47;2.20;99.90
698;DHT22;331;48.414;9.938;2023-03-05T02:36:15;2.20;99.90
698;DHT22;331;48.414;9.938;2023-03-05T02:38:44;2.20;99.90
698;DHT22;331;48.414;9.938;2023-03-05T02:41:12;2.20;99.90
698;DHT22;331;48.414;9.938;2023-03-05T02:43:40;2.20;99.90
698;DHT22;331;48.414;9.938;2023-03-05T02:46:07;2.20;99.90
698;DHT22;331;48.414;9.938;2023-03-05T02:48:34;2.20;99.90
698;DHT22;331;48.414;9.938;2023-03-05T02:51:01;2.20;99.90
698;DHT22;331;48.414;9.938;2023-03-05T02:53:28;2.20;99.90
698;DHT22;331;48.414;9.938;2023-03-05T02:55:56;2.20;99.90
698;DHT22;331;48.414;9.938;2023-03-05T02:58:23;2.20;99.90
698;DHT22;331;48.414;9.938;2023-03-05T03:00:50;2.20;99.90
698;DHT22;331;48.414;9.938;2023-03-05T03:03:17;2.20;99.90
698;DHT22;331;48.414;9.938;2023-03-05T03:05:44;2.20;99.90
698;DHT22;331;48.414;9.938;2023-03-05T03:08:11;2.20;99.90
698;DHT22;331;48.414;9.938;2023-03-05T03:10:37;2.20;99.90
698;DHT22;331;48.414;9.938;2023-03-05T03:13:06;2.20;99.90
698;DHT22;331;48.414;9.938;2023-03-05T03:15:33;2.20;99.90
698;DHT22;331;48.414;9.938;2023-03-05T03:18:00;2.20;99.90
698;DHT22;331;48.414;9.938;2023-03-05T03:20:26;2.20;99.90
698;DHT22;331;48.414;9.938;2023-03-05T03:22:53;2.20;99.90
698;DHT22;331;48.414;9.938;2023-03-05T03:25:23;2.20;99.90
698;DHT22;331;48.414;9.938;2023-03-05T03:27:51;2.20;99.90
698;DHT22;331;48.414;9.938;2023-03-05T03:30:19;2.20;99.90
698;DHT22;331;48.414;9.938;2023-03-05T03:32:46;2.20;99.90
698;DHT22;331;48.414;9.938;2023-03-05T03:35:13;2.20;99.90
698;DHT22;331;48.414;9.938;2023-03-05T03:37:41;2.20;99.90
698;DHT22;331;48.414;9.938;2023-03-05T03:40:08;2.20;99.90
698;DHT22;331;48.414;9.938;2023-03-05T03:42:36;2.20;99.90
698;DHT22;331;48.414;9.938;2023-03-05T03:45:03;2.20;99.90
698;DHT22;331;48.414;9.938;2023-03-05T03:47:31;2.20;99.90
698;DHT22;331;48.414;9.938;2023-03-05T03:49:58;2.20;99.90
698;DHT22;331;48.414;9.938;2023-03-05T03:52:25;2.20;99.90
698;DHT22;331;48.414;9.938;2023-03-05T03:54:52;2.20;99.90
698;DHT22;331;48.414;9.938;2023-03-05T03:57:26;2.20;99.90
698;DHT22;331;48.414;9.938;2023-03-05T03:59:52;2.20;99.90
698;DHT22;331;48.414;9.938;2023-03-05T04:02:19;2.20;99.90
698;DHT22;331;48.414;9.938;2023-03-05T04:04:48;2.20;99.90
698;DHT22;331;48.414;9.938;2023-03-05T04:07:15;2.20;99.90
698;DHT22;331;48.414;9.938;2023-03-05T04:09:41;2.20;99.90
698;DHT22;331;48.414;9.938;2023-03-05T04:12:08;2.20;99.90
698;DHT22;331;48.414;9.938;2023-03-05T04:14:35;2.20;99.90
698;DHT22;331;48.414;9.938;2023-03-05T04:17:03;2.20;99.90
698;DHT22;331;48.414;9.938;2023-03-05T04:19:29;2.20;99.90
698;DHT22;331;48.414;9.938;2023-03-05T04:21:58;2.20;99.90
698;DHT22;331;48.414;9.938;2023-03-05T04:24:25;2.20;99.90
698;DHT22;331;48.414;9.938;2023-03-05T04:26:51;2.20;99.90
698;DHT22;331;48.414;9.938;2023-03-05T04:29:18;2.20;99.90
698;DHT22;331;48.414;9.938;2023-03-05T04:31:45;2.20;99.90
698;DHT22;331;48.414;9.938;2023-03-05T04:34:12;2.20;99.90
698;DHT22;331;48.414;9.938;2023-03-05T04:36:39;2.20;99.90
698;DHT22;331;48.414;9.938;2023-03-05T04:39:07;2.20;99.90
698;DHT22;331;48.414;9.938;2023-03-05T04:41:34;2.20;99.90
698;DHT22;331;48.414;9.938;2023-03-05T04:44:01;2.20;99.90
698;DHT22;331;48.414;9.938;2023-03-05T04:46:27;2.20;99.90
698;DHT22;331;48.414;9.938;2023-03-05T04:48:55;2.20;99.90
698;DHT22;331;48.414;9.938;2023-03-05T04:51:22;2.20;99.90
698;DHT22;331;48.414;9.938;2023-03-05T04:53:49;2.20;99.90
698;DHT22;331;48.414;9.938;2023-03-05T04:56:17;2.20;99.90
698;DHT22;331;48.414;9.938;2023-03-05T04:58:44;2.20;99.90
698;DHT22;331;48.414;9.938;2023-03-05T05:01:12;2.20;99.90
698;DHT22;331;48.414;9.938;2023-03-05T05:03:39;2.20;99.90
698;DHT22;331;48.414;9.938;2023-03-05T05:06:06;2.20;99.90
698;DHT22;331;48.414;9.938;2023-03-05T05:08:33;2.20;99.90
698;DHT22;331;48.414;9.938;2023-03-05T05:11:00;2.20;99.90
698;DHT22;331;48.414;9.938;2023-03-05T05:13:28;2.20;99.90
698;DHT22;331;48.414;9.938;2023-03-05T05:15:55;2.20;99.90
698;DHT22;331;48.414;9.938;2023-03-05T05:18:23;2.20;99.90
698;DHT22;331;48.414;9.938;2023-03-05T05:20:49;2.20;99.90
698;DHT22;331;48.414;9.938;2023-03-05T05:23:16;2.20;99.90
698;DHT22;331;48.414;9.938;2023-03-05T05:25:43;2.20;99.90
698;DHT22;331;48.414;9.938;2023-03-05T05:28:11;2.20;99.90
698;DHT22;331;48.414;9.938;2023-03-05T05:30:39;2.20;99.90
698;DHT22;331;48.414;9.938;2023-03-05T05:33:06;2.20;99.90
698;DHT22;331;48.414;9.938;2023-03-05T05:35:32;2.20;99.90
698;DHT22;331;48.414;9.938;2023-03-05T05:37:59;2.20;99.90
698;DHT22;331;48.414;9.938;2023-03-05T05:40:26;2.20;99.90
698;DHT22;331;48.414;9.938;2023-03-05T05:42:53;2.20;99.90
698;DHT22;331;48.414;9.938;2023-03-05T05:45:20;2.20;99.90
698;DHT22;331;48.414;9.938;2023-03-05T05:50:28;2.20;99.90
698;DHT22;331;48.414;9.938;2023-03-05T05:52:54;2.20;99.90
698;DHT22;331;48.414;9.938;2023-03-05T05:55:21;2.20;99.90
698;DHT22;331;48.414;9.938;2023-03-05T05:57:48;2.20;99.90
698;DHT22;331;48.414;9.938;2023-03-05T06:00:15;2.20;99.90
698;DHT22;331;48.414;9.938;2023-03-05T06:02:42;2.20;99.90
698;DHT22;331;48.414;9.938;2023-03-05T06:05:10;2.20;99.90
698;DHT22;331;48.414;9.938;2023-03-05T06:07:38;2.20;99.90
698;DHT22;331;48.414;9.938;2023-03-05T06:10:06;2.20;99.90
698;DHT22;331;48.414;9.938;2023-03-05T06:12:33;2.20;99.90
698;DHT22;331;48.414;9.938;2023-03-05T06:14:59;2.20;99.90
698;DHT22;331;48.414;9.938;2023-03-05T06:17:27;2.20;99.90
698;DHT22;331;48.414;9.938;2023-03-05T06:19:54;2.20;99.90
698;DHT22;331;48.414;9.938;2023-03-05T06:22:20;2.20;99.90
698;DHT22;331;48.414;9.938;2023-03-05T06:24:48;2.20;99.90
698;DHT22;331;48.414;9.938;2023-03-05T06:27:15;2.20;99.90
698;DHT22;331;48.414;9.938;2023-03-05T06:29:42;2.20;99.90
698;DHT22;331;48.414;9.938;2023-03-05T06:32:09;2.20;99.90
698;DHT22;331;48.414;9.938;2023-03-05T06:34:36;2.20;99.90
698;DHT22;331;48.414;9.938;2023-03-05T06:37:02;2.20;99.90
698;DHT22;331;48.414;9.938;2023-03-05T06:39:29;2.20;99.90
698;DHT22;331;48.414;9.938;2023-03-05T06:41:58;2.20;99.90
698;DHT22;331;48.414;9.938;2023-03-05T06:44:25;2.20;99.90
698;DHT22;331;48.414;9.938;2023-03-05T06:46:51;2.20;99.90
698;DHT22;331;48.414;9.938;2023-03-05T06:49:18;2.20;99.90
698;DHT22;331;48.414;9.938;2023-03-05T06:51:45;2.20;99.90
698;DHT22;331;48.414;9.938;2023-03-05T06:54:13;2.20;99.90
698;DHT22;331;48.414;9.938;2023-03-05T06:56:41;2.20;99.90
698;DHT22;331;48.414;9.938;2023-03-05T06:59:10;2.20;99.90
698;DHT22;331;48.414;9.938;2023-03-05T07:01:37;2.20;99.90
698;DHT22;331;48.414;9.938;2023-03-05T07:04:04;2.20;99.90
698;DHT22;331;48.414;9.938;2023-03-05T07:06:32;2.20;99.90
698;DHT22;331;48.414;9.938;2023-03-05T07:08:59;2.20;99.90
698;DHT22;331;48.414;9.938;2023-03-05T07:11:26;2.20;99.90
698;DHT22;331;48.414;9.938;2023-03-05T07:13:53;2.20;99.90
698;DHT22;331;48.414;9.938;2023-03-05T07:16:22;2.20;99.90
698;DHT22;331;48.414;9.938;2023-03-05T07:18:50;2.20;99.90
698;DHT22;331;48.414;9.938;2023-03-05T07:21:17;2.20;99.90
698;DHT22;331;48.414;9.938;2023-03-05T07:23:45;2.20;99.90
698;DHT22;331;48.414;9.938;2023-03-05T07:26:12;2.20;99.90
698;DHT22;331;48.414;9.938;2023-03-05T07:28:39;2.20;99.90
698;DHT22;331;48.414;9.938;2023-03-05T07:31:07;2.20;99.90
698;DHT22;331;48.414;9.938;2023-03-05T07:33:35;2.20;99.90
698;DHT22;331;48.414;9.938;2023-03-05T07:36:02;2.20;99.90
698;DHT22;331;48.414;9.938;2023-03-05T07:38:29;2.20;99.90
698;DHT22;331;48.414;9.938;2023-03-05T07:41:00;2.20;99.90
698;DHT22;331;48.414;9.938;2023-03-05T07:43:27;2.20;99.90
698;DHT22;331;48.414;9.938;2023-03-05T07:45:54;2.10;99.90
698;DHT22;331;48.414;9.938;2023-03-05T07:48:20;2.10;99.90
698;DHT22;331;48.414;9.938;2023-03-05T07:50:49;2.20;99.90
698;DHT22;331;48.414;9.938;2023-03-05T07:53:16;2.20;99.90
698;DHT22;331;48.414;9.938;2023-03-05T07:55:43;2.20;99.90
698;DHT22;331;48.414;9.938;2023-03-05T07:58:10;2.20;99.90
698;DHT22;331;48.414;9.938;2023-03-05T08:00:38;2.20;99.90
698;DHT22;331;48.414;9.938;2023-03-05T08:03:05;2.10;99.90
698;DHT22;331;48.414;9.938;2023-03-05T08:05:34;2.10;99.90
698;DHT22;331;48.414;9.938;2023-03-05T08:08:02;2.10;99.90
698;DHT22;331;48.414;9.938;2023-03-05T08:10:29;2.10;99.90
698;DHT22;331;48.414;9.938;2023-03-05T08:12:55;2.10;99.90
698;DHT22;331;48.414;9.938;2023-03-05T08:15:28;2.10;99.90
698;DHT22;331;48.414;9.938;2023-03-05T08:17:56;2.10;99.90
698;DHT22;331;48.414;9.938;2023-03-05T08:20:23;2.10;99.90
698;DHT22;331;48.414;9.938;2023-03-05T08:22:49;2.10;99.90
698;DHT22;331;48.414;9.938;2023-03-05T08:25:18;2.10;99.90
698;DHT22;331;48.414;9.938;2023-03-05T08:27:47;2.10;99.90
698;DHT22;331;48.414;9.938;2023-03-05T08:30:17;2.10;99.90
698;DHT22;331;48.414;9.938;2023-03-05T08:32:47;2.20;99.90
698;DHT22;331;48.414;9.938;2023-03-05T08:35:14;2.20;99.90
698;DHT22;331;48.414;9.938;2023-03-05T08:37:40;2.10;99.90
698;DHT22;331;48.414;9.938;2023-03-05T08:40:08;2.10;99.90
698;DHT22;331;48.414;9.938;2023-03-05T08:42:37;2.10;99.90
698;DHT22;331;48.414;9.938;2023-03-05T08:45:04;2.10;99.90
698;DHT22;331;48.414;9.938;2023-03-05T08:47:31;2.10;99.90
698;DHT22;331;48.414;9.938;2023-03-05T08:49:58;2.10;99.90
698;DHT22;331;48.414;9.938;2023-03-05T08:52:24;2.10;99.90
698;DHT22;331;48.414;9.938;2023-03-05T08:54:52;2.10;99.90
698;DHT22;331;48.414;9.938;2023-03-05T08:57:19;2.10;99.90
698;DHT22;331;48.414;9.938;2023-03-05T08:59:47;2.10;99.90
698;DHT22;331;48.414;9.938;2023-03-05T09:02:14;2.10;99.90
698;DHT22;331;48.414;9.938;2023-03-05T09:04:41;2.10;99.90
698;DHT22;331;48.414;9.938;2023-03-05T09:07:11;2.10;99.90
698;DHT22;331;48.414;9.938;2023-03-05T09:09:40;2.10;99.90
698;DHT22;331;48.414;9.938;2023-03-05T09:12:07;2.20;99.90
698;DHT22;331;48.414;9.938;2023-03-05T09:14:36;2.20;99.90
698;DHT22;331;48.414;9.938;2023-03-05T09:17:04;2.20;99.90
698;DHT22;331;48.414;9.938;2023-03-05T09:19:31;2.20;99.90
698;DHT22;331;48.414;9.938;2023-03-05T09:21:58;2.20;99.90
698;DHT22;331;48.414;9.938;2023-03-05T09:24:24;2.20;99.90
698;DHT22;331;48.414;9.938;2023-03-05T09:26:51;2.20;99.90
698;DHT22;331;48.414;9.938;2023-03-05T09:29:18;2.20;99.90
698;DHT22;331;48.414;9.938;2023-03-05T09:31:48;2.20;99.90
698;DHT22;331;48.414;9.938;2023-03-05T09:34:17;2.20;99.90
698;DHT22;331;48.414;9.938;2023-03-05T09:36:44;2.20;99.90
698;DHT22;331;48.414;9.938;2023-03-05T09:39:11;2.20;99.90
698;DHT22;331;48.414;9.938;2023-03-05T09:41:44;2.30;99.90
698;DHT22;331;48.414;9.938;2023-03-05T09:44:19;2.30;99.90
698;DHT22;331;48.414;9.938;2023-03-05T09:46:50;2.30;99.90
698;DHT22;331;48.414;9.938;2023-03-05T09:49:23;2.30;99.90
698;DHT22;331;48.414;9.938;2023-03-05T09:51:55;2.30;99.90
698;DHT22;331;48.414;9.938;2023-03-05T09:54:27;2.30;99.90
698;DHT22;331;48.414;9.938;2023-03-05T09:56:56;2.30;99.90
698;DHT22;331;48.414;9.938;2023-03-05T09:59:27;2.30;99.90
698;DHT22;331;48.414;9.938;2023-03-05T10:01:56;2.30;99.90
698;DHT22;331;48.414;9.938;2023-03-05T10:04:27;2.30;99.90
698;DHT22;331;48.414;9.938;2023-03-05T10:06:59;2.30;99.90
698;DHT22;331;48.414;9.938;2023-03-05T10:09:33;2.30;99.90
698;DHT22;331;48.414;9.938;2023-03-05T10:12:12;2.30;99.90
698;DHT22;331;48.414;9.938;2023-03-05T10:14:40;2.30;99.90
698;DHT22;331;48.414;9.938;2023-03-05T10:22:45;2.40;99.90
698;DHT22;331;48.414;9.938;2023-03-05T10:25:16;2.40;99.90
698;DHT22;331;48.414;9.938;2023-03-05T10:27:46;2.40;99.90
698;DHT22;331;48.414;9.938;2023-03-05T10:33:07;2.40;99.90
698;DHT22;331;48.414;9.938;2023-03-05T10:35:46;2.40;99.90
698;DHT22;331;48.414;9.938;2023-03-05T10:38:22;2.40;99.90
698;DHT22;331;48.414;9.938;2023-03-05T10:40:51;2.40;99.90
698;DHT22;331;48.414;9.938;2023-03-05T10:43:22;2.40;99.90
698;DHT22;331;48.414;9.938;2023-03-05T10:45:51;2.40;99.90
698;DHT22;331;48.414;9.938;2023-03-05T10:48:22;2.40;99.90
698;DHT22;331;48.414;9.938;2023-03-05T10:50:52;2.40;99.90
698;DHT22;331;48.414;9.938;2023-03-05T10:53:24;2.50;99.90
698;DHT22;331;48.414;9.938;2023-03-05T10:55:53;2.40;99.90
698;DHT22;331;48.414;9.938;2023-03-05T10:58:22;2.40;99.90
698;DHT22;331;48.414;9.938;2023-03-05T11:01:00;2.50;99.90
698;DHT22;331;48.414;9.938;2023-03-05T11:03:45;2.50;99.90
698;DHT22;331;48.414;9.938;2023-03-05T11:06:12;2.50;99.90
698;DHT22;331;48.414;9.938;2023-03-05T11:08:42;2.50;99.90
698;DHT22;331;48.414;9.938;2023-03-05T11:11:13;2.50;99.90
698;DHT22;331;48.414;9.938;2023-03-05T11:13:43;2.60;99.90
698;DHT22;331;48.414;9.938;2023-03-05T11:16:15;2.60;99.90
698;DHT22;331;48.414;9.938;2023-03-05T11:18:42;2.60;99.90
698;DHT22;331;48.414;9.938;2023-03-05T11:21:11;2.60;99.90
698;DHT22;331;48.414;9.938;2023-03-05T11:23:46;2.60;99.90
698;DHT22;331;48.414;9.938;2023-03-05T11:26:31;2.60;99.90
698;DHT22;331;48.414;9.938;2023-03-05T11:28:59;2.60;99.90
698;DHT22;331;48.414;9.938;2023-03-05T11:31:28;2.60;99.90
698;DHT22;331;48.414;9.938;2023-03-05T11:33:57;2.60;99.90
698;DHT22;331;48.414;9.938;2023-03-05T11:36:26;2.60;99.90
698;DHT22;331;48.414;9.938;2023-03-05T11:38:55;2.60;99.90
698;DHT22;331;48.414;9.938;2023-03-05T11:41:24;2.60;99.90
698;DHT22;331;48.414;9.938;2023-03-05T11:43:52;2.60;99.90
698;DHT22;331;48.414;9.938;2023-03-05T11:46:20;2.70;99.90
698;DHT22;331;48.414;9.938;2023-03-05T11:48:47;2.60;99.90
698;DHT22;331;48.414;9.938;2023-03-05T11:51:15;2.60;99.90
698;DHT22;331;48.414;9.938;2023-03-05T11:53:44;2.70;99.90
698;DHT22;331;48.414;9.938;2023-03-05T11:56:15;2.60;99.90
698;DHT22;331;48.414;9.938;2023-03-05T11:58:45;2.70;99.90
698;DHT22;331;48.414;9.938;2023-03-05T12:01:15;2.70;99.90
698;DHT22;331;48.414;9.938;2023-03-05T12:03:42;2.70;99.90
698;DHT22;331;48.414;9.938;2023-03-05T12:06:13;2.70;99.90
698;DHT22;331;48.414;9.938;2023-03-05T12:08:41;2.70;99.90
698;DHT22;331;48.414;9.938;2023-03-05T12:11:12;2.70;99.90
698;DHT22;331;48.414;9.938;2023-03-05T12:13:42;2.70;99.90
698;DHT22;331;48.414;9.938;2023-03-05T12:16:12;2.70;99.90
698;DHT22;331;48.414;9.938;2023-03-05T12:18:50;2.70;99.90
698;DHT22;331;48.414;9.938;2023-03-05T12:21:22;2.70;99.90
698;DHT22;331;48.414;9.938;2023-03-05T12:23:52;2.70;99.90
698;DHT22;331;48.414;9.938;2023-03-05T12:26:52;2.70;99.90
698;DHT22;331;48.414;9.938;2023-03-05T12:29:29;2.80;99.90
698;DHT22;331;48.414;9.938;2023-03-05T12:31:57;2.80;99.90
698;DHT22;331;48.414;9.938;2023-03-05T12:34:33;2.80;99.90
698;DHT22;331;48.414;9.938;2023-03-05T12:37:01;2.80;99.90
698;DHT22;331;48.414;9.938;2023-03-05T12:39:47;2.80;99.90
698;DHT22;331;48.414;9.938;2023-03-05T12:48:32;2.80;99.90
698;DHT22;331;48.414;9.938;2023-03-05T12:50:46;2.80;99.90
698;DHT22;331;48.414;9.938;2023-03-05T12:53:14;2.80;99.90
698;DHT22;331;48.414;9.938;2023-03-05T12:55:44;2.80;99.90
698;DHT22;331;48.414;9.938;2023-03-05T12:58:16;2.80;99.90
698;DHT22;331;48.414;9.938;2023-03-05T13:00:45;2.80;99.90
698;DHT22;331;48.414;9.938;2023-03-05T13:03:17;2.80;99.90
698;DHT22;331;48.414;9.938;2023-03-05T13:05:48;2.80;99.90
698;DHT22;331;48.414;9.938;2023-03-05T13:08:19;2.80;99.90
698;DHT22;331;48.414;9.938;2023-03-05T13:10:51;2.80;99.90
698;DHT22;331;48.414;9.938;2023-03-05T13:13:18;2.80;99.90
698;DHT22;331;48.414;9.938;2023-03-05T13:15:45;2.80;99.90
698;DHT22;331;48.414;9.938;2023-03-05T13:18:17;2.80;99.90
698;DHT22;331;48.414;9.938;2023-03-05T13:20:46;2.90;99.90
698;DHT22;331;48.414;9.938;2023-03-05T13:23:18;2.90;99.90
698;DHT22;331;48.414;9.938;2023-03-05T13:25:55;2.90;99.90
698;DHT22;331;48.414;9.938;2023-03-05T13:28:24;2.90;99.90
698;DHT22;331;48.414;9.938;2023-03-05T13:30:51;2.90;99.90
698;DHT22;331;48.414;9.938;2023-03-05T13:33:21;2.90;99.90
698;DHT22;331;48.414;9.938;2023-03-05T13:35:49;2.90;99.90
698;DHT22;331;48.414;9.938;2023-03-05T13:38:23;2.90;99.90
698;DHT22;331;48.414;9.938;2023-03-05T13:41:00;2.90;99.90
698;DHT22;331;48.414;9.938;2023-03-05T13:43:27;2.90;99.90
698;DHT22;331;48.414;9.938;2023-03-05T13:45:54;2.90;99.90
698;DHT22;331;48.414;9.938;2023-03-05T13:48:24;2.90;99.90
698;DHT22;331;48.414;9.938;2023-03-05T13:50:52;2.90;99.90
698;DHT22;331;48.414;9.938;2023-03-05T13:53:21;2.90;99.90
698;DHT22;331;48.414;9.938;2023-03-05T13:55:49;2.90;99.90
698;DHT22;331;48.414;9.938;2023-03-05T14:01:02;2.90;99.90
698;DHT22;331;48.414;9.938;2023-03-05T14:03:30;3.00;99.90
698;DHT22;331;48.414;9.938;2023-03-05T14:05:57;3.00;99.90
698;DHT22;331;48.414;9.938;2023-03-05T14:08:24;3.00;99.90
698;DHT22;331;48.414;9.938;2023-03-05T14:10:52;3.00;99.90
698;DHT22;331;48.414;9.938;2023-03-05T14:13:19;3.00;99.90
698;DHT22;331;48.414;9.938;2023-03-05T14:16:01;3.00;99.90
698;DHT22;331;48.414;9.938;2023-03-05T14:18:28;3.00;99.90
698;DHT22;331;48.414;9.938;2023-03-05T14:21:01;3.00;99.90
698;DHT22;331;48.414;9.938;2023-03-05T14:23:38;3.00;99.90
698;DHT22;331;48.414;9.938;2023-03-05T14:28:59;3.00;99.90
698;DHT22;331;48.414;9.938;2023-03-05T14:31:27;3.00;99.90
698;DHT22;331;48.414;9.938;2023-03-05T14:33:58;3.00;99.90
698;DHT22;331;48.414;9.938;2023-03-05T14:36:27;3.00;99.90
698;DHT22;331;48.414;9.938;2023-03-05T14:38:54;3.00;99.90
698;DHT22;331;48.414;9.938;2023-03-05T14:41:36;3.00;99.90
698;DHT22;331;48.414;9.938;2023-03-05T14:44:10;3.00;99.90
698;DHT22;331;48.414;9.938;2023-03-05T14:46:38;3.00;99.90
698;DHT22;331;48.414;9.938;2023-03-05T14:49:05;3.00;99.90
698;DHT22;331;48.414;9.938;2023-03-05T14:51:34;3.00;99.90
698;DHT22;331;48.414;9.938;2023-03-05T14:54:03;3.00;99.90
698;DHT22;331;48.414;9.938;2023-03-05T14:56:30;3.10;99.90
698;DHT22;331;48.414;9.938;2023-03-05T14:58:57;3.00;99.90
698;DHT22;331;48.414;9.938;2023-03-05T15:01:25;3.00;99.90
698;DHT22;331;48.414;9.938;2023-03-05T15:03:52;3.00;99.90
698;DHT22;331;48.414;9.938;2023-03-05T15:06:20;3.10;99.90
698;DHT22;331;48.414;9.938;2023-03-05T15:08:52;3.10;99.90
698;DHT22;331;48.414;9.938;2023-03-05T15:11:18;3.10;99.90
698;DHT22;331;48.414;9.938;2023-03-05T15:13:47;3.00;99.90
698;DHT22;331;48.414;9.938;2023-03-05T15:16:15;3.10;99.90
698;DHT22;331;48.414;9.938;2023-03-05T15:18:42;3.00;99.90
698;DHT22;331;48.414;9.938;2023-03-05T15:21:09;3.00;99.90
698;DHT22;331;48.414;9.938;2023-03-05T15:23:36;3.10;99.90
698;DHT22;331;48.414;9.938;2023-03-05T15:26:05;3.00;99.90
698;DHT22;331;48.414;9.938;2023-03-05T15:28:33;3.10;99.90
698;DHT22;331;48.414;9.938;2023-03-05T15:31:00;3.10;99.90
698;DHT22;331;48.414;9.938;2023-03-05T15:33:27;3.00;99.90
698;DHT22;331;48.414;9.938;2023-03-05T15:35:54;3.10;99.90
698;DHT22;331;48.414;9.938;2023-03-05T15:38:21;3.00;99.90
698;DHT22;331;48.414;9.938;2023-03-05T15:40:48;3.10;99.90
698;DHT22;331;48.414;9.938;2023-03-05T15:43:18;3.10;99.90
698;DHT22;331;48.414;9.938;2023-03-05T15:45:45;3.00;99.90
698;DHT22;331;48.414;9.938;2023-03-05T15:48:12;3.00;99.90
698;DHT22;331;48.414;9.938;2023-03-05T15:50:39;3.10;99.90
698;DHT22;331;48.414;9.938;2023-03-05T15:53:06;3.10;99.90
698;DHT22;331;48.414;9.938;2023-03-05T15:55:36;3.10;99.90
698;DHT22;331;48.414;9.938;2023-03-05T15:58:03;3.10;99.90
698;DHT22;331;48.414;9.938;2023-03-05T16:00:32;3.10;99.90
698;DHT22;331;48.414;9.938;2023-03-05T16:03:02;3.10;99.90
698;DHT22;331;48.414;9.938;2023-03-05T16:05:29;3.10;99.90
698;DHT22;331;48.414;9.938;2023-03-05T16:07:56;3.10;99.90
698;DHT22;331;48.414;9.938;2023-03-05T16:10:24;3.10;99.90
698;DHT22;331;48.414;9.938;2023-03-05T16:12:52;3.10;99.90
698;DHT22;331;48.414;9.938;2023-03-05T16:15:20;3.10;99.90
698;DHT22;331;48.414;9.938;2023-03-05T16:17:49;3.10;99.90
698;DHT22;331;48.414;9.938;2023-03-05T16:20:17;3.10;99.90
698;DHT22;331;48.414;9.938;2023-03-05T16:22:45;3.10;99.90
698;DHT22;331;48.414;9.938;2023-03-05T16:25:12;3.10;99.90
698;DHT22;331;48.414;9.938;2023-03-05T16:27:39;3.10;99.90
698;DHT22;331;48.414;9.938;2023-03-05T16:30:07;3.10;99.90
698;DHT22;331;48.414;9.938;2023-03-05T16:32:35;3.10;99.90
698;DHT22;331;48.414;9.938;2023-03-05T16:35:04;3.10;99.90
698;DHT22;331;48.414;9.938;2023-03-05T16:37:32;3.10;99.90
698;DHT22;331;48.414;9.938;2023-03-05T16:39:58;3.10;99.90
698;DHT22;331;48.414;9.938;2023-03-05T16:42:26;3.10;99.90
698;DHT22;331;48.414;9.938;2023-03-05T16:44:53;3.10;99.90
698;DHT22;331;48.414;9.938;2023-03-05T16:47:21;3.10;99.90
698;DHT22;331;48.414;9.938;2023-03-05T16:49:48;3.10;99.90
698;DHT22;331;48.414;9.938;2023-03-05T16:52:16;3.10;99.90
698;DHT22;331;48.414;9.938;2023-03-05T16:54:43;3.10;99.90
698;DHT22;331;48.414;9.938;2023-03-05T16:57:10;3.10;99.90
698;DHT22;331;48.414;9.938;2023-03-05T16:59:37;3.10;99.90
698;DHT22;331;48.414;9.938;2023-03-05T17:02:04;3.10;99.90
698;DHT22;331;48.414;9.938;2023-03-05T17:04:30;3.10;99.90
698;DHT22;331;48.414;9.938;2023-03-05T17:06:57;3.10;99.90
698;DHT22;331;48.414;9.938;2023-03-05T17:09:26;3.10;99.90
698;DHT22;331;48.414;9.938;2023-03-05T17:11:53;3.10;99.90
698;DHT22;331;48.414;9.938;2023-03-05T17:14:20;3.10;99.90
698;DHT22;331;48.414;9.938;2023-03-05T17:16:46;3.10;99.90
698;DHT22;331;48.414;9.938;2023-03-05T17:19:13;3.10;99.90
698;DHT22;331;48.414;9.938;2023-03-05T17:21:40;3.10;99.90